• Join FlightAware (Why Join?)
  • Login
  • US Flag 
04:23PM EDT


 

Airport Tracker/Info


-or-


 

Live Flight TrackerFlight Track Log ✈ AWI4029 ✈ 19-Aug-2013 ✈ KALB - KPHL

Flight Track Log - Related Links

Times and Time Zones

All times are in EDT time to prevent confusion due to time zone crossing. See the AWI4029 flight status page for this flight to view local times or setup timezone preferences in your user account.

Time Position Orientation Groundspeed Altitude Reporting Facility
EDT Latitude Longitude Course Direction KTS MPH feet Rate Location/Type
05:36AM 42.7694 -73.8089 North 157 181 1,300  Level Boston Center
05:37AM 42.8194 -73.8044 North 187 215 3,300 1,860 Climbing Boston Center
05:39AM 42.8603 -73.8819 306° West 246 283 5,600 2,160 Climbing Boston Center
05:40AM 42.8319 -73.9775 248° West 221 254 8,400 2,520 Climbing Boston Center
05:41AM 42.8075 -74.0817 252° West 254 292 10,700 2,280 Climbing Boston Center
05:42AM 42.7767 -74.1883 249° West 272 313 12,900 1,980 Climbing Boston Center
05:43AM 42.7522 -74.2808 250° West 287 330 14,700 1,500 Climbing Boston Center
05:44AM 42.6883 -74.3750 227° Southwest 303 349 16,000 660 Climbing Boston Center
05:45AM 42.6267 -74.4464 220° Southwest 314 361 16,100  Climbing Boston Center
05:46AM 42.5522 -74.5286 219° Southwest 324 373 16,100  Level Boston Center
05:47AM 42.4925 -74.5969 220° Southwest 324 373 16,100 -60 Level Boston Center
05:49AM 42.3583 -74.7500 220° Southwest 314 361 16,000 -60 Descending New York Center
05:50AM 42.2911 -74.8272 220° Southwest 320 368 16,000  Level New York Center
05:51AM 42.2197 -74.9067 220° Southwest 325 374 16,000  Level New York Center
05:52AM 42.1419 -74.9886 218° Southwest 331 381 16,000  Level New York Center
05:53AM 42.0647 -75.0533 212° Southwest 336 387 16,000  Level New York Center
05:54AM 41.9875 -75.1181 212° Southwest 336 387 16,000  Level New York Center
05:55AM 41.9167 -75.1747 211° Southwest 336 387 16,000  Level New York Center
05:56AM 41.8308 -75.2442 211° Southwest 336 387 16,000 -360 Level New York Center
05:57AM 41.7514 -75.3083 211° Southwest 336 387 15,300 -780 Descending New York Center
05:58AM 41.6717 -75.3725 211° Southwest 336 387 14,500 -840 Descending New York Center
05:59AM 41.6031 -75.4258 210° Southwest 331 381 13,700 -840 Descending New York Center
06:00AM 41.5278 -75.4872 211° Southwest 331 381 12,900 -900 Descending New York Center
06:01AM 41.4439 -75.5533 211° Southwest 326 375 12,000 -480 Descending New York Center
06:02AM 41.3708 -75.6117 211° Southwest 326 375 12,000  Level New York Center
06:03AM 41.2975 -75.6672 210° Southwest 326 375 12,000  Level New York Center
06:04AM 41.2133 -75.6914 192° South 319 367 12,000 -300 Level New York Center
06:05AM 41.1322 -75.6883 178° South 326 375 11,500 -540 Descending New York Center
06:06AM 41.0425 -75.6872 179° South 326 375 11,000 -540 Descending New York Center
06:07AM 40.9489 -75.6858 179° South 331 381 10,500 -540 Descending New York Center
06:08AM 40.8594 -75.6850 180° South 331 381 10,000 -300 Descending New York Center
06:09AM 40.7633 -75.6864 181° South 331 381 10,000  Level New York Center
06:10AM 40.6781 -75.6856 180° South 318 366 10,000  Level New York Center
06:11AM 40.5928 -75.6822 178° South 312 359 10,000  Level New York Center
06:12AM 40.5417 -75.6075 132° Southeast 289 333 10,000  Level New York Center
06:13AM 40.4956 -75.5142 123° Southeast 294 338 10,000 -600 Level New York Center
06:14AM 40.4281 -75.4278 136° Southeast 306 352 8,900 -1,020 Descending New York Center
06:15AM 40.3683 -75.3531 136° Southeast 301 346 8,000 -960 Descending New York Center
06:16AM 40.3125 -75.2867 138° Southeast 301 346 7,000 -1,080 Descending New York Center
06:17AM 40.2533 -75.1986 131° Southeast 301 346 5,900 -1,020 Descending New York Center
06:18AM 40.1981 -75.1189 132° Southeast 300 345 5,000 -480 Descending New York Center
06:19AM 40.1525 -75.0536 132° Southeast 273 314 5,000  Level New York Center
06:19AM 40.1167 -75.0333 157° South 219 252 5,000 -360 Level Philadelphia TRACON
06:20AM 40.0500 -75.0333 180° South 217 250 4,500 -780 Descending Philadelphia TRACON
06:21AM 40.0000 -75.0333 180° South 206 237 3,500 -1,020 Descending Philadelphia TRACON
06:22AM 39.9333 -75.0500 191° South 202 232 2,500 -780 Descending Philadelphia TRACON
06:23AM 39.9167 -75.1000 247° West 173 199 2,000 -660 Descending Philadelphia TRACON
06:24AM 39.9000 -75.1500 247° West 148 170 1,200 -840 Descending Philadelphia TRACON
06:25AM 39.8833 -75.2000 247° West 146 168 400 -840 Descending Philadelphia TRACON
06:27AM 39.8667 -75.2333 247° West  Level FlightAware Approximate
06:34AM 39.8722 -75.2409 247° West  Level Estimated